QR1185 OEJN-OTHH
Flight info
| Callsign | QR1185 |
|---|---|
| Flight time | N/A |
| Altitude | 41000 |
| Route | EGREP T532 KODIS Y214 RAPMA DCT LADBO T142 LAEEB |
| Aircraft | A359/H-SDE2E3GHIJ3J4J5LM1ORWXY/LB1D1 |
Departure
| Time | 2026-04-30 04:40 |
|---|---|
| Airport | King Abdulaziz International Airport (OEJN) |
Arrival
| Time | N/A |
|---|---|
| Airport | Hamad International Airport (OTHH) |
| Time | Latitude | Longitude | Altitude | Speed | Heading |
|---|---|---|---|---|---|
| 2026-04-30 03:52 | 21.66958 | 39.16794 | 40 ft | 0 kts | 29° |
| 2026-04-30 03:55 | 21.66957 | 39.16794 | 40 ft | 0 kts | 29° |
| 2026-04-30 03:56 | 21.66882 | 39.16958 | 39 ft | 0 kts | 44° |
| 2026-04-30 03:56 | 21.66311 | 39.17697 | 43 ft | 0 kts | 191° |
| 2026-04-30 04:31 | 21.66312 | 39.17697 | 43 ft | 2 kts | 191° |
| 2026-04-30 04:31 | 21.66337 | 39.17702 | 41 ft | 4 kts | 191° |
| 2026-04-30 04:31 | 21.66364 | 39.17708 | 42 ft | 4 kts | 191° |
| 2026-04-30 04:31 | 21.66390 | 39.17714 | 38 ft | 4 kts | 198° |
| 2026-04-30 04:32 | 21.66414 | 39.17726 | 40 ft | 4 kts | 222° |
| 2026-04-30 04:32 | 21.66429 | 39.17748 | 38 ft | 4 kts | 260° |
| 2026-04-30 04:32 | 21.66430 | 39.17761 | 38 ft | 0 kts | 275° |
| 2026-04-30 04:37 | 21.66432 | 39.17740 | 38 ft | 16 kts | 276° |
| 2026-04-30 04:38 | 21.66456 | 39.17617 | 42 ft | 15 kts | 276° |
| 2026-04-30 04:38 | 21.66483 | 39.17496 | 41 ft | 18 kts | 295° |
| 2026-04-30 04:38 | 21.66577 | 39.17465 | 40 ft | 16 kts | 44° |
| 2026-04-30 04:38 | 21.66631 | 39.17578 | 42 ft | 18 kts | 69° |
| 2026-04-30 04:39 | 21.66627 | 39.17708 | 42 ft | 19 kts | 130° |
| 2026-04-30 04:39 | 21.66600 | 39.17839 | 42 ft | 19 kts | 75° |
| 2026-04-30 04:39 | 21.66647 | 39.17980 | 43 ft | 19 kts | 66° |
| 2026-04-30 04:39 | 21.66756 | 39.18004 | 43 ft | 23 kts | 338° |
| 2026-04-30 04:40 | 21.67133 | 39.17855 | 41 ft | 94 kts | 342° |
| 2026-04-30 04:40 | 21.67969 | 39.17532 | 39 ft | 159 kts | 340° |
| 2026-04-30 04:40 | 21.69075 | 39.17087 | 622 ft | 170 kts | 338° |
| 2026-04-30 04:40 | 21.70183 | 39.16581 | 1372 ft | 177 kts | 336° |
| 2026-04-30 04:41 | 21.71317 | 39.16018 | 2071 ft | 185 kts | 335° |
| 2026-04-30 04:41 | 21.72515 | 39.15443 | 2761 ft | 193 kts | 337° |
| 2026-04-30 04:41 | 21.73840 | 39.15004 | 3371 ft | 205 kts | 349° |
| 2026-04-30 04:41 | 21.75252 | 39.15184 | 4170 ft | 211 kts | 19° |
| 2026-04-30 04:42 | 21.76583 | 39.16066 | 4589 ft | 239 kts | 34° |
| 2026-04-30 04:42 | 21.77931 | 39.17252 | 5029 ft | 259 kts | 36° |
| 2026-04-30 04:42 | 21.79350 | 39.18496 | 5590 ft | 271 kts | 36° |
| 2026-04-30 04:42 | 21.80858 | 39.19788 | 5922 ft | 280 kts | 36° |
| 2026-04-30 04:43 | 21.82396 | 39.21079 | 6003 ft | 282 kts | 35° |
| 2026-04-30 04:43 | 21.83954 | 39.22373 | 6009 ft | 283 kts | 35° |
| 2026-04-30 04:43 | 21.85518 | 39.23668 | 6008 ft | 283 kts | 35° |
| 2026-04-30 04:43 | 21.87065 | 39.24944 | 6008 ft | 283 kts | 35° |
| 2026-04-30 04:44 | 21.88632 | 39.26231 | 6010 ft | 283 kts | 35° |
| 2026-04-30 04:44 | 21.90201 | 39.27519 | 6009 ft | 283 kts | 34° |
| 2026-04-30 04:44 | 21.91767 | 39.28806 | 6008 ft | 283 kts | 35° |
| 2026-04-30 04:44 | 21.93337 | 39.30085 | 6012 ft | 283 kts | 33° |
| 2026-04-30 04:45 | 21.94983 | 39.31257 | 6100 ft | 282 kts | 29° |
| 2026-04-30 04:45 | 21.96674 | 39.32373 | 6519 ft | 287 kts | 29° |
| 2026-04-30 04:45 | 21.98390 | 39.33507 | 7304 ft | 291 kts | 29° |
| 2026-04-30 04:45 | 22.00124 | 39.34649 | 8168 ft | 294 kts | 29° |
| 2026-04-30 04:46 | 22.01884 | 39.35814 | 9031 ft | 299 kts | 29° |
| 2026-04-30 04:46 | 22.03646 | 39.36979 | 9885 ft | 303 kts | 29° |
| 2026-04-30 04:46 | 22.05479 | 39.38189 | 10516 ft | 317 kts | 29° |
| 2026-04-30 04:46 | 22.07421 | 39.39470 | 10872 ft | 337 kts | 29° |
| 2026-04-30 04:47 | 22.09482 | 39.40832 | 11225 ft | 357 kts | 30° |